Terminal Aerodrome Forecast
Issued by NWS Wilmington, OH

Current Version | Previous Version | Graphics & Text | Print | Product List | Glossary On
Versions: 1 2 3 4 5 6 7 8 9 10 11 12 13 14 15 16 17
000
FTUS41 KILN 211858 AAA
TAFDAY
TAF AMD
KDAY 211858Z 2119/2218 29010KT P6SM BKN035 OVC250
     FM220600 32009KT P6SM BKN025 OVC250
     FM221300 35009KT P6SM VCSH BKN035 OVC090
     FM221500 05012G23KT P6SM VCSH SCT025 OVC090=

USA.gov is the U.S. government's official web portal to all federal, state and local government web resources and services.